sensor_id;sensor_type;location;lat;lon;timestamp;temperature;humidity
69009;SHT31;56065;52.472;13.380;2022-09-13T00:01:40;16.05;74.74
69009;SHT31;56065;52.472;13.380;2022-09-13T00:04:05;16.07;74.82
69009;SHT31;56065;52.472;13.380;2022-09-13T00:06:31;16.05;74.79
69009;SHT31;56065;52.472;13.380;2022-09-13T00:08:56;15.98;75.05
69009;SHT31;56065;52.472;13.380;2022-09-13T00:11:27;15.98;75.11
69009;SHT31;56065;52.472;13.380;2022-09-13T00:13:54;16.00;74.91
69009;SHT31;56065;52.472;13.380;2022-09-13T00:16:22;15.98;74.92
69009;SHT31;56065;52.472;13.380;2022-09-13T00:18:49;15.98;74.99
69009;SHT31;56065;52.472;13.380;2022-09-13T00:21:17;15.98;74.76
69009;SHT31;56065;52.472;13.380;2022-09-13T00:23:48;15.90;74.97
69009;SHT31;56065;52.472;13.380;2022-09-13T00:26:17;15.90;74.85
69009;SHT31;56065;52.472;13.380;2022-09-13T00:28:42;15.87;75.05
69009;SHT31;56065;52.472;13.380;2022-09-13T00:31:10;15.87;74.98
69009;SHT31;56065;52.472;13.380;2022-09-13T00:33:35;15.84;75.16
69009;SHT31;56065;52.472;13.380;2022-09-13T00:36:10;15.82;75.21
69009;SHT31;56065;52.472;13.380;2022-09-13T00:38:39;15.82;75.05
69009;SHT31;56065;52.472;13.380;2022-09-13T00:41:06;15.77;75.13
69009;SHT31;56065;52.472;13.380;2022-09-13T00:43:52;15.71;75.49
69009;SHT31;56065;52.472;13.380;2022-09-13T00:48:58;15.69;75.32
69009;SHT31;56065;52.472;13.380;2022-09-13T00:51:26;15.65;75.23
69009;SHT31;56065;52.472;13.380;2022-09-13T00:53:53;15.63;75.52
69009;SHT31;56065;52.472;13.380;2022-09-13T00:56:33;15.59;75.37
69009;SHT31;56065;52.472;13.380;2022-09-13T00:59:08;15.57;75.40
69009;SHT31;56065;52.472;13.380;2022-09-13T01:01:50;15.55;75.28
69009;SHT31;56065;52.472;13.380;2022-09-13T01:04:18;15.49;75.46
69009;SHT31;56065;52.472;13.380;2022-09-13T01:06:45;15.46;75.61
69009;SHT31;56065;52.472;13.380;2022-09-13T01:09:11;15.43;75.62
69009;SHT31;56065;52.472;13.380;2022-09-13T01:14:02;15.38;75.81
69009;SHT31;56065;52.472;13.380;2022-09-13T01:16:28;15.40;75.74
69009;SHT31;56065;52.472;13.380;2022-09-13T01:18:53;15.38;75.77
69009;SHT31;56065;52.472;13.380;2022-09-13T01:24:47;15.29;76.35
69009;SHT31;56065;52.472;13.380;2022-09-13T01:39:03;15.19;76.47
69009;SHT31;56065;52.472;13.380;2022-09-13T01:47:02;15.05;77.01
69009;SHT31;56065;52.472;13.380;2022-09-13T01:55:04;14.99;77.06
69009;SHT31;56065;52.472;13.380;2022-09-13T01:57:36;14.96;77.17
69009;SHT31;56065;52.472;13.380;2022-09-13T02:00:12;14.94;76.93
69009;SHT31;56065;52.472;13.380;2022-09-13T02:03:06;14.95;77.01
69009;SHT31;56065;52.472;13.380;2022-09-13T02:05:51;14.91;77.52
69009;SHT31;56065;52.472;13.380;2022-09-13T02:10:58;14.91;77.52
69009;SHT31;56065;52.472;13.380;2022-09-13T02:13:28;14.87;77.38
69009;SHT31;56065;52.472;13.380;2022-09-13T02:16:07;14.92;77.14
69009;SHT31;56065;52.472;13.380;2022-09-13T02:18:40;14.89;77.22
69009;SHT31;56065;52.472;13.380;2022-09-13T02:21:13;14.89;77.29
69009;SHT31;56065;52.472;13.380;2022-09-13T02:23:43;14.87;77.54
69009;SHT31;56065;52.472;13.380;2022-09-13T02:26:13;14.87;77.74
69009;SHT31;56065;52.472;13.380;2022-09-13T02:28:44;14.87;77.51
69009;SHT31;56065;52.472;13.380;2022-09-13T02:31:15;14.91;77.23
69009;SHT31;56065;52.472;13.380;2022-09-13T02:33:46;14.88;77.04
69009;SHT31;56065;52.472;13.380;2022-09-13T02:36:16;14.88;77.26
69009;SHT31;56065;52.472;13.380;2022-09-13T02:38:47;14.84;77.50
69009;SHT31;56065;52.472;13.380;2022-09-13T02:47:05;14.85;77.70
69009;SHT31;56065;52.472;13.380;2022-09-13T02:49:43;14.84;77.65
69009;SHT31;56065;52.472;13.380;2022-09-13T02:54:42;14.92;77.52
69009;SHT31;56065;52.472;13.380;2022-09-13T02:57:16;14.95;77.37
69009;SHT31;56065;52.472;13.380;2022-09-13T02:59:45;14.98;77.24
69009;SHT31;56065;52.472;13.380;2022-09-13T03:02:20;15.01;77.15
69009;SHT31;56065;52.472;13.380;2022-09-13T03:04:47;15.01;77.05
69009;SHT31;56065;52.472;13.380;2022-09-13T03:07:14;14.99;77.39
69009;SHT31;56065;52.472;13.380;2022-09-13T03:10:05;14.95;77.18
69009;SHT31;56065;52.472;13.380;2022-09-13T03:18:30;14.89;77.30
69009;SHT31;56065;52.472;13.380;2022-09-13T03:34:42;14.81;77.39
69009;SHT31;56065;52.472;13.380;2022-09-13T03:43:27;14.77;77.48
69009;SHT31;56065;52.472;13.380;2022-09-13T03:46:03;14.73;77.72
69009;SHT31;56065;52.472;13.380;2022-09-13T03:48:31;14.71;77.90
69009;SHT31;56065;52.472;13.380;2022-09-13T03:50:57;14.77;77.69
69009;SHT31;56065;52.472;13.380;2022-09-13T03:53:25;14.73;77.94
69009;SHT31;56065;52.472;13.380;2022-09-13T03:55:52;14.77;77.87
69009;SHT31;56065;52.472;13.380;2022-09-13T03:58:18;14.80;77.50
69009;SHT31;56065;52.472;13.380;2022-09-13T04:00:45;14.83;77.63
69009;SHT31;56065;52.472;13.380;2022-09-13T04:03:11;14.87;77.80
69009;SHT31;56065;52.472;13.380;2022-09-13T04:05:37;14.91;77.54
69009;SHT31;56065;52.472;13.380;2022-09-13T04:08:04;14.95;77.28
69009;SHT31;56065;52.472;13.380;2022-09-13T04:10:30;15.02;77.13
69009;SHT31;56065;52.472;13.380;2022-09-13T04:12:57;15.05;76.98
69009;SHT31;56065;52.472;13.380;2022-09-13T04:15:23;15.05;77.03
69009;SHT31;56065;52.472;13.380;2022-09-13T04:17:49;15.04;76.87
69009;SHT31;56065;52.472;13.380;2022-09-13T04:20:15;15.05;77.22
69009;SHT31;56065;52.472;13.380;2022-09-13T04:22:40;15.09;77.37
69009;SHT31;56065;52.472;13.380;2022-09-13T04:25:07;15.14;77.14
69009;SHT31;56065;52.472;13.380;2022-09-13T04:27:32;15.14;77.13
69009;SHT31;56065;52.472;13.380;2022-09-13T04:30:00;15.18;77.23
69009;SHT31;56065;52.472;13.380;2022-09-13T04:32:25;15.18;77.04
69009;SHT31;56065;52.472;13.380;2022-09-13T04:34:50;15.16;77.10
69009;SHT31;56065;52.472;13.380;2022-09-13T04:37:16;15.18;76.74
69009;SHT31;56065;52.472;13.380;2022-09-13T04:39:41;15.16;76.79
69009;SHT31;56065;52.472;13.380;2022-09-13T04:42:07;15.16;76.93
69009;SHT31;56065;52.472;13.380;2022-09-13T04:44:34;15.19;76.89
69009;SHT31;56065;52.472;13.380;2022-09-13T04:46:59;15.21;76.86
69009;SHT31;56065;52.472;13.380;2022-09-13T04:49:25;15.21;76.89
69009;SHT31;56065;52.472;13.380;2022-09-13T04:51:50;15.25;76.99
69009;SHT31;56065;52.472;13.380;2022-09-13T04:54:16;15.25;76.79
69009;SHT31;56065;52.472;13.380;2022-09-13T04:56:42;15.28;76.92
69009;SHT31;56065;52.472;13.380;2022-09-13T04:59:08;15.39;76.75
69009;SHT31;56065;52.472;13.380;2022-09-13T05:01:35;15.47;76.62
69009;SHT31;56065;52.472;13.380;2022-09-13T05:04:02;15.53;77.07
69009;SHT31;56065;52.472;13.380;2022-09-13T05:06:27;15.60;76.53
69009;SHT31;56065;52.472;13.380;2022-09-13T05:08:54;15.60;76.38
69009;SHT31;56065;52.472;13.380;2022-09-13T05:11:21;15.73;76.54
69009;SHT31;56065;52.472;13.380;2022-09-13T05:13:50;15.87;76.25
69009;SHT31;56065;52.472;13.380;2022-09-13T05:16:17;15.96;75.83
69009;SHT31;56065;52.472;13.380;2022-09-13T05:18:42;15.98;76.16
69009;SHT31;56065;52.472;13.380;2022-09-13T05:21:07;15.98;75.70
69009;SHT31;56065;52.472;13.380;2022-09-13T05:23:33;16.10;75.80
69009;SHT31;56065;52.472;13.380;2022-09-13T05:26:02;16.05;75.29
69009;SHT31;56065;52.472;13.380;2022-09-13T05:28:30;16.15;75.49
69009;SHT31;56065;52.472;13.380;2022-09-13T05:31:00;16.20;75.53
69009;SHT31;56065;52.472;13.380;2022-09-13T05:33:27;16.35;75.34
69009;SHT31;56065;52.472;13.380;2022-09-13T05:35:53;16.35;75.05
69009;SHT31;56065;52.472;13.380;2022-09-13T05:38:18;16.45;74.45
69009;SHT31;56065;52.472;13.380;2022-09-13T05:40:44;16.48;74.85
69009;SHT31;56065;52.472;13.380;2022-09-13T05:43:10;16.49;74.47
69009;SHT31;56065;52.472;13.380;2022-09-13T05:45:35;16.54;74.46
69009;SHT31;56065;52.472;13.380;2022-09-13T05:48:01;16.48;74.60
69009;SHT31;56065;52.472;13.380;2022-09-13T05:50:27;16.44;74.65
69009;SHT31;56065;52.472;13.380;2022-09-13T05:52:57;16.44;75.03
69009;SHT31;56065;52.472;13.380;2022-09-13T05:55:23;16.47;75.25
69009;SHT31;56065;52.472;13.380;2022-09-13T05:57:49;16.32;75.67
69009;SHT31;56065;52.472;13.380;2022-09-13T06:00:15;16.31;76.38
69009;SHT31;56065;52.472;13.380;2022-09-13T06:02:41;16.40;76.64
69009;SHT31;56065;52.472;13.380;2022-09-13T06:05:07;16.13;77.25
69009;SHT31;56065;52.472;13.380;2022-09-13T06:07:34;16.24;77.03
69009;SHT31;56065;52.472;13.380;2022-09-13T06:10:00;16.24;76.77
69009;SHT31;56065;52.472;13.380;2022-09-13T06:12:25;16.27;77.24
69009;SHT31;56065;52.472;13.380;2022-09-13T06:14:51;16.22;77.77
69009;SHT31;56065;52.472;13.380;2022-09-13T06:17:16;16.27;77.70
69009;SHT31;56065;52.472;13.380;2022-09-13T06:19:41;16.25;78.06
69009;SHT31;56065;52.472;13.380;2022-09-13T06:22:07;16.28;78.30
69009;SHT31;56065;52.472;13.380;2022-09-13T06:24:32;16.29;78.55
69009;SHT31;56065;52.472;13.380;2022-09-13T06:26:58;16.05;78.69
69009;SHT31;56065;52.472;13.380;2022-09-13T06:29:24;16.08;78.82
69009;SHT31;56065;52.472;13.380;2022-09-13T06:31:49;15.98;79.28
69009;SHT31;56065;52.472;13.380;2022-09-13T06:34:14;16.07;79.43
69009;SHT31;56065;52.472;13.380;2022-09-13T06:36:41;15.96;79.66
69009;SHT31;56065;52.472;13.380;2022-09-13T06:39:07;15.86;79.32
69009;SHT31;56065;52.472;13.380;2022-09-13T06:41:33;15.89;79.60
69009;SHT31;56065;52.472;13.380;2022-09-13T06:44:00;16.08;79.43
69009;SHT31;56065;52.472;13.380;2022-09-13T06:46:27;16.22;79.22
69009;SHT31;56065;52.472;13.380;2022-09-13T06:48:54;16.25;78.96
69009;SHT31;56065;52.472;13.380;2022-09-13T06:51:22;16.40;78.99
69009;SHT31;56065;52.472;13.380;2022-09-13T06:53:48;16.47;78.88
69009;SHT31;56065;52.472;13.380;2022-09-13T06:56:16;16.45;78.74
69009;SHT31;56065;52.472;13.380;2022-09-13T06:58:44;16.47;78.49
69009;SHT31;56065;52.472;13.380;2022-09-13T07:01:12;16.64;78.46
69009;SHT31;56065;52.472;13.380;2022-09-13T07:03:43;16.90;77.91
69009;SHT31;56065;52.472;13.380;2022-09-13T07:06:14;17.16;77.91
69009;SHT31;56065;52.472;13.380;2022-09-13T07:08:41;17.41;77.63
69009;SHT31;56065;52.472;13.380;2022-09-13T07:11:08;17.61;76.91
69009;SHT31;56065;52.472;13.380;2022-09-13T07:13:34;17.67;76.29
69009;SHT31;56065;52.472;13.380;2022-09-13T07:16:01;17.71;76.59
69009;SHT31;56065;52.472;13.380;2022-09-13T07:18:26;17.82;76.48
69009;SHT31;56065;52.472;13.380;2022-09-13T07:20:52;17.73;76.41
69009;SHT31;56065;52.472;13.380;2022-09-13T07:23:22;17.75;76.47
69009;SHT31;56065;52.472;13.380;2022-09-13T07:25:54;17.81;76.58
69009;SHT31;56065;52.472;13.380;2022-09-13T07:28:20;17.85;76.10
69009;SHT31;56065;52.472;13.380;2022-09-13T07:30:45;17.91;76.23
69009;SHT31;56065;52.472;13.380;2022-09-13T07:33:11;17.79;76.33
69009;SHT31;56065;52.472;13.380;2022-09-13T07:35:36;17.84;76.27
69009;SHT31;56065;52.472;13.380;2022-09-13T07:38:02;17.88;76.19
69009;SHT31;56065;52.472;13.380;2022-09-13T07:40:27;18.08;75.75
69009;SHT31;56065;52.472;13.380;2022-09-13T07:42:52;18.17;76.13
69009;SHT31;56065;52.472;13.380;2022-09-13T07:45:18;18.13;75.44
69009;SHT31;56065;52.472;13.380;2022-09-13T07:47:43;18.28;75.68
69009;SHT31;56065;52.472;13.380;2022-09-13T07:50:09;18.43;76.08
69009;SHT31;56065;52.472;13.380;2022-09-13T07:52:34;18.52;75.65
69009;SHT31;56065;52.472;13.380;2022-09-13T07:55:02;18.73;74.88
69009;SHT31;56065;52.472;13.380;2022-09-13T07:57:27;18.90;74.61
69009;SHT31;56065;52.472;13.380;2022-09-13T07:59:53;19.10;74.36
69009;SHT31;56065;52.472;13.380;2022-09-13T08:02:19;19.05;73.85
69009;SHT31;56065;52.472;13.380;2022-09-13T08:04:44;19.25;73.78
69009;SHT31;56065;52.472;13.380;2022-09-13T08:07:10;19.18;73.57
69009;SHT31;56065;52.472;13.380;2022-09-13T08:09:35;19.26;73.00
69009;SHT31;56065;52.472;13.380;2022-09-13T08:12:00;19.28;73.74
69009;SHT31;56065;52.472;13.380;2022-09-13T08:14:26;19.39;73.70
69009;SHT31;56065;52.472;13.380;2022-09-13T08:16:55;19.22;73.25
69009;SHT31;56065;52.472;13.380;2022-09-13T08:19:21;19.49;73.09
69009;SHT31;56065;52.472;13.380;2022-09-13T08:21:46;19.52;73.27
69009;SHT31;56065;52.472;13.380;2022-09-13T08:24:19;19.66;72.95
69009;SHT31;56065;52.472;13.380;2022-09-13T08:26:45;19.82;72.28
69009;SHT31;56065;52.472;13.380;2022-09-13T08:29:12;20.36;71.90
69009;SHT31;56065;52.472;13.380;2022-09-13T08:31:38;20.43;71.71
69009;SHT31;56065;52.472;13.380;2022-09-13T08:34:03;20.57;71.58
69009;SHT31;56065;52.472;13.380;2022-09-13T08:36:29;20.58;71.60
69009;SHT31;56065;52.472;13.380;2022-09-13T08:38:57;20.48;71.24
69009;SHT31;56065;52.472;13.380;2022-09-13T08:46:44;21.05;69.88
69009;SHT31;56065;52.472;13.380;2022-09-13T08:49:15;21.98;68.66
69009;SHT31;56065;52.472;13.380;2022-09-13T08:51:52;22.63;67.09
69009;SHT31;56065;52.472;13.380;2022-09-13T08:54:18;22.32;66.27
69009;SHT31;56065;52.472;13.380;2022-09-13T08:59:56;24.35;60.70
69009;SHT31;56065;52.472;13.380;2022-09-13T09:02:54;24.26;60.17
69009;SHT31;56065;52.472;13.380;2022-09-13T09:05:28;23.62;62.01
69009;SHT31;56065;52.472;13.380;2022-09-13T09:07:56;23.33;62.84
69009;SHT31;56065;52.472;13.380;2022-09-13T09:10:26;23.58;62.76
69009;SHT31;56065;52.472;13.380;2022-09-13T09:12:57;23.30;62.62
69009;SHT31;56065;52.472;13.380;2022-09-13T09:15:25;24.35;61.62
69009;SHT31;56065;52.472;13.380;2022-09-13T09:20:41;25.52;58.14
69009;SHT31;56065;52.472;13.380;2022-09-13T09:23:19;26.68;56.48
69009;SHT31;56065;52.472;13.380;2022-09-13T09:25:46;27.19;55.17
69009;SHT31;56065;52.472;13.380;2022-09-13T09:28:13;26.69;54.33
69009;SHT31;56065;52.472;13.380;2022-09-13T09:36:40;30.16;48.43
69009;SHT31;56065;52.472;13.380;2022-09-13T09:39:11;30.34;47.76
69009;SHT31;56065;52.472;13.380;2022-09-13T09:41:37;31.08;47.95
69009;SHT31;56065;52.472;13.380;2022-09-13T09:44:24;29.51;48.29
69009;SHT31;56065;52.472;13.380;2022-09-13T09:47:14;28.41;50.20
69009;SHT31;56065;52.472;13.380;2022-09-13T09:49:46;28.31;51.80
69009;SHT31;56065;52.472;13.380;2022-09-13T09:52:35;27.98;52.44
69009;SHT31;56065;52.472;13.380;2022-09-13T09:55:26;27.20;53.62
69009;SHT31;56065;52.472;13.380;2022-09-13T10:00:31;26.43;54.58
69009;SHT31;56065;52.472;13.380;2022-09-13T10:02:59;26.85;54.78
69009;SHT31;56065;52.472;13.380;2022-09-13T10:05:26;27.29;54.48
69009;SHT31;56065;52.472;13.380;2022-09-13T10:07:54;29.13;52.11
69009;SHT31;56065;52.472;13.380;2022-09-13T10:10:35;30.96;49.08
69009;SHT31;56065;52.472;13.380;2022-09-13T10:13:01;30.61;47.94
69009;SHT31;56065;52.472;13.380;2022-09-13T10:15:29;29.98;48.45
69009;SHT31;56065;52.472;13.380;2022-09-13T10:18:13;27.88;52.20
69009;SHT31;56065;52.472;13.380;2022-09-13T10:20:41;28.28;52.06
69009;SHT31;56065;52.472;13.380;2022-09-13T10:23:19;27.94;51.97
69009;SHT31;56065;52.472;13.380;2022-09-13T10:25:57;27.17;54.15
69009;SHT31;56065;52.472;13.380;2022-09-13T10:28:25;26.78;55.18
69009;SHT31;56065;52.472;13.380;2022-09-13T10:31:11;26.37;56.31
69009;SHT31;56065;52.472;13.380;2022-09-13T10:33:41;26.67;56.05
69009;SHT31;56065;52.472;13.380;2022-09-13T10:36:14;26.27;56.27
69009;SHT31;56065;52.472;13.380;2022-09-13T10:38:53;25.65;57.78
69009;SHT31;56065;52.472;13.380;2022-09-13T10:41:25;25.53;57.20
69009;SHT31;56065;52.472;13.380;2022-09-13T10:43:59;25.80;57.40
69009;SHT31;56065;52.472;13.380;2022-09-13T10:46:26;25.56;57.70
69009;SHT31;56065;52.472;13.380;2022-09-13T10:48:53;25.19;58.34
69009;SHT31;56065;52.472;13.380;2022-09-13T10:53:49;24.43;59.95
69009;SHT31;56065;52.472;13.380;2022-09-13T10:56:24;24.35;60.29
69009;SHT31;56065;52.472;13.380;2022-09-13T10:58:50;24.41;61.01
69009;SHT31;56065;52.472;13.380;2022-09-13T11:01:57;24.04;61.35
69009;SHT31;56065;52.472;13.380;2022-09-13T11:12:48;24.09;61.75
69009;SHT31;56065;52.472;13.380;2022-09-13T11:26:38;22.44;69.20
69009;SHT31;56065;52.472;13.380;2022-09-13T11:29:46;22.39;69.34
69009;SHT31;56065;52.472;13.380;2022-09-13T11:32:19;22.18;70.34
69009;SHT31;56065;52.472;13.380;2022-09-13T11:41:45;21.97;72.10
69009;SHT31;56065;52.472;13.380;2022-09-13T11:46:54;21.40;73.60
69009;SHT31;56065;52.472;13.380;2022-09-13T11:54:58;21.39;73.12
69009;SHT31;56065;52.472;13.380;2022-09-13T11:57:32;21.45;72.85
69009;SHT31;56065;52.472;13.380;2022-09-13T12:00:05;21.20;73.82
69009;SHT31;56065;52.472;13.380;2022-09-13T12:05:29;21.35;73.88
69009;SHT31;56065;52.472;13.380;2022-09-13T12:10:39;21.47;73.33
69009;SHT31;56065;52.472;13.380;2022-09-13T12:13:16;21.61;73.53
69009;SHT31;56065;52.472;13.380;2022-09-13T12:15:45;21.78;72.94
69009;SHT31;56065;52.472;13.380;2022-09-13T12:18:16;21.88;72.18
69009;SHT31;56065;52.472;13.380;2022-09-13T12:20:54;22.41;71.04
69009;SHT31;56065;52.472;13.380;2022-09-13T12:23:26;22.73;70.70
69009;SHT31;56065;52.472;13.380;2022-09-13T12:25:59;22.82;70.10
69009;SHT31;56065;52.472;13.380;2022-09-13T12:28:36;22.19;70.82
69009;SHT31;56065;52.472;13.380;2022-09-13T12:31:09;22.26;70.64
69009;SHT31;56065;52.472;13.380;2022-09-13T12:33:40;21.95;71.29
69009;SHT31;56065;52.472;13.380;2022-09-13T12:44:37;21.77;72.03
69009;SHT31;56065;52.472;13.380;2022-09-13T12:49:54;21.93;71.88
69009;SHT31;56065;52.472;13.380;2022-09-13T12:52:32;22.02;71.33
69009;SHT31;56065;52.472;13.380;2022-09-13T13:01:25;22.07;71.49
69009;SHT31;56065;52.472;13.380;2022-09-13T13:04:09;22.18;71.43
69009;SHT31;56065;52.472;13.380;2022-09-13T13:06:41;21.61;72.68
69009;SHT31;56065;52.472;13.380;2022-09-13T13:09:52;21.95;72.16
69009;SHT31;56065;52.472;13.380;2022-09-13T13:12:57;22.22;72.18
69009;SHT31;56065;52.472;13.380;2022-09-13T13:23:13;22.25;71.54
69009;SHT31;56065;52.472;13.380;2022-09-13T13:39:09;24.10;67.26
69009;SHT31;56065;52.472;13.380;2022-09-13T13:46:46;23.64;67.31
69009;SHT31;56065;52.472;13.380;2022-09-13T13:57:39;24.56;66.29
69009;SHT31;56065;52.472;13.380;2022-09-13T14:00:17;24.83;65.37
69009;SHT31;56065;52.472;13.380;2022-09-13T14:02:52;25.10;64.64
69009;SHT31;56065;52.472;13.380;2022-09-13T14:21:21;25.28;64.23
69009;SHT31;56065;52.472;13.380;2022-09-13T14:23:48;25.72;63.96
69009;SHT31;56065;52.472;13.380;2022-09-13T14:26:13;25.24;63.91
69009;SHT31;56065;52.472;13.380;2022-09-13T14:28:39;25.05;63.60
69009;SHT31;56065;52.472;13.380;2022-09-13T14:31:05;25.01;64.02
69009;SHT31;56065;52.472;13.380;2022-09-13T14:33:36;24.49;64.20
69009;SHT31;56065;52.472;13.380;2022-09-13T14:36:07;24.37;65.57
69009;SHT31;56065;52.472;13.380;2022-09-13T14:38:48;24.19;65.43
69009;SHT31;56065;52.472;13.380;2022-09-13T14:41:20;23.89;66.20
69009;SHT31;56065;52.472;13.380;2022-09-13T14:43:47;23.75;66.72
69009;SHT31;56065;52.472;13.380;2022-09-13T14:48:53;23.06;69.05
69009;SHT31;56065;52.472;13.380;2022-09-13T14:51:20;23.13;69.10
69009;SHT31;56065;52.472;13.380;2022-09-13T14:53:49;23.07;69.15
69009;SHT31;56065;52.472;13.380;2022-09-13T14:56:27;23.23;68.66
69009;SHT31;56065;52.472;13.380;2022-09-13T14:58:57;23.57;68.51
69009;SHT31;56065;52.472;13.380;2022-09-13T15:01:29;23.68;68.12
69009;SHT31;56065;52.472;13.380;2022-09-13T15:03:57;23.35;68.71
69009;SHT31;56065;52.472;13.380;2022-09-13T15:06:26;23.68;68.24
69009;SHT31;56065;52.472;13.380;2022-09-13T15:09:24;23.81;67.24
69009;SHT31;56065;52.472;13.380;2022-09-13T15:17:12;23.88;67.47
69009;SHT31;56065;52.472;13.380;2022-09-13T15:19:42;23.82;67.30
69009;SHT31;56065;52.472;13.380;2022-09-13T15:24:58;23.59;67.75
69009;SHT31;56065;52.472;13.380;2022-09-13T15:27:30;23.44;68.50
69009;SHT31;56065;52.472;13.380;2022-09-13T15:30:01;23.28;69.16
69009;SHT31;56065;52.472;13.380;2022-09-13T15:32:40;23.37;68.66
69009;SHT31;56065;52.472;13.380;2022-09-13T15:35:22;22.87;70.15
69009;SHT31;56065;52.472;13.380;2022-09-13T15:38:00;22.72;70.48
69009;SHT31;56065;52.472;13.380;2022-09-13T15:40:28;22.92;69.93
69009;SHT31;56065;52.472;13.380;2022-09-13T15:42:53;23.10;69.78
69009;SHT31;56065;52.472;13.380;2022-09-13T15:45:20;22.90;70.10
69009;SHT31;56065;52.472;13.380;2022-09-13T15:47:47;22.56;70.70
69009;SHT31;56065;52.472;13.380;2022-09-13T15:50:26;22.42;71.06
69009;SHT31;56065;52.472;13.380;2022-09-13T15:52:54;22.22;71.64
69009;SHT31;56065;52.472;13.380;2022-09-13T15:55:20;22.08;72.20
69009;SHT31;56065;52.472;13.380;2022-09-13T15:57:45;21.88;72.69
69009;SHT31;56065;52.472;13.380;2022-09-13T16:00:17;21.97;72.28
69009;SHT31;56065;52.472;13.380;2022-09-13T16:02:44;21.95;72.36
69009;SHT31;56065;52.472;13.380;2022-09-13T16:05:10;21.93;72.55
69009;SHT31;56065;52.472;13.380;2022-09-13T16:07:36;21.87;72.50
69009;SHT31;56065;52.472;13.380;2022-09-13T16:10:03;21.64;72.81
69009;SHT31;56065;52.472;13.380;2022-09-13T16:12:29;21.80;72.70
69009;SHT31;56065;52.472;13.380;2022-09-13T16:14:54;21.81;72.34
69009;SHT31;56065;52.472;13.380;2022-09-13T16:17:25;21.58;72.65
69009;SHT31;56065;52.472;13.380;2022-09-13T16:19:51;21.51;72.59
69009;SHT31;56065;52.472;13.380;2022-09-13T16:22:17;21.53;72.96
69009;SHT31;56065;52.472;13.380;2022-09-13T16:24:42;21.54;72.65
69009;SHT31;56065;52.472;13.380;2022-09-13T16:27:10;21.39;73.34
69009;SHT31;56065;52.472;13.380;2022-09-13T16:29:36;21.43;72.88
69009;SHT31;56065;52.472;13.380;2022-09-13T16:32:02;21.33;73.45
69009;SHT31;56065;52.472;13.380;2022-09-13T16:34:27;21.20;74.17
69009;SHT31;56065;52.472;13.380;2022-09-13T16:36:52;21.20;73.82
69009;SHT31;56065;52.472;13.380;2022-09-13T16:39:18;21.22;73.94
69009;SHT31;56065;52.472;13.380;2022-09-13T16:41:43;21.22;73.95
69009;SHT31;56065;52.472;13.380;2022-09-13T16:44:09;21.07;74.58
69009;SHT31;56065;52.472;13.380;2022-09-13T16:46:34;21.03;74.76
69009;SHT31;56065;52.472;13.380;2022-09-13T16:49:00;20.91;75.30
69009;SHT31;56065;52.472;13.380;2022-09-13T16:51:25;20.72;75.79
69009;SHT31;56065;52.472;13.380;2022-09-13T16:53:52;20.85;75.50
69009;SHT31;56065;52.472;13.380;2022-09-13T16:56:19;20.85;75.56
69009;SHT31;56065;52.472;13.380;2022-09-13T16:58:46;20.82;75.62
69009;SHT31;56065;52.472;13.380;2022-09-13T17:01:13;20.74;75.85
69009;SHT31;56065;52.472;13.380;2022-09-13T17:03:39;20.76;75.72
69009;SHT31;56065;52.472;13.380;2022-09-13T17:06:07;20.79;75.39
69009;SHT31;56065;52.472;13.380;2022-09-13T17:08:35;20.78;75.47
69009;SHT31;56065;52.472;13.380;2022-09-13T17:11:06;20.72;75.42
69009;SHT31;56065;52.472;13.380;2022-09-13T17:13:31;20.69;75.70
69009;SHT31;56065;52.472;13.380;2022-09-13T17:15:57;20.48;76.96
69009;SHT31;56065;52.472;13.380;2022-09-13T17:18:22;20.48;76.29
69009;SHT31;56065;52.472;13.380;2022-09-13T17:20:48;20.37;77.13
69009;SHT31;56065;52.472;13.380;2022-09-13T17:23:15;20.36;77.09
69009;SHT31;56065;52.472;13.380;2022-09-13T17:25:42;20.33;76.84
69009;SHT31;56065;52.472;13.380;2022-09-13T17:28:11;20.26;77.31
69009;SHT31;56065;52.472;13.380;2022-09-13T17:30:36;20.27;76.79
69009;SHT31;56065;52.472;13.380;2022-09-13T17:33:02;20.20;77.58
69009;SHT31;56065;52.472;13.380;2022-09-13T17:35:30;20.10;77.54
69009;SHT31;56065;52.472;13.380;2022-09-13T17:37:56;20.10;77.50
69009;SHT31;56065;52.472;13.380;2022-09-13T17:40:21;20.12;77.58
69009;SHT31;56065;52.472;13.380;2022-09-13T17:42:46;20.01;77.80
69009;SHT31;56065;52.472;13.380;2022-09-13T17:45:13;20.00;78.03
69009;SHT31;56065;52.472;13.380;2022-09-13T17:47:38;19.90;78.34
69009;SHT31;56065;52.472;13.380;2022-09-13T17:50:04;19.90;78.14
69009;SHT31;56065;52.472;13.380;2022-09-13T17:52:29;19.75;78.72
69009;SHT31;56065;52.472;13.380;2022-09-13T17:54:55;19.77;78.37
69009;SHT31;56065;52.472;13.380;2022-09-13T17:57:20;19.73;78.62
69009;SHT31;56065;52.472;13.380;2022-09-13T17:59:46;19.65;78.56
69009;SHT31;56065;52.472;13.380;2022-09-13T18:02:11;19.65;78.55
69009;SHT31;56065;52.472;13.380;2022-09-13T18:04:37;19.54;79.03
69009;SHT31;56065;52.472;13.380;2022-09-13T18:07:02;19.48;79.05
69009;SHT31;56065;52.472;13.380;2022-09-13T18:09:27;19.49;79.11
69009;SHT31;56065;52.472;13.380;2022-09-13T18:11:53;19.48;79.11
69009;SHT31;56065;52.472;13.380;2022-09-13T18:14:18;19.38;79.11
69009;SHT31;56065;52.472;13.380;2022-09-13T18:16:44;19.41;78.97
69009;SHT31;56065;52.472;13.380;2022-09-13T18:19:10;19.28;79.61
69009;SHT31;56065;52.472;13.380;2022-09-13T18:21:36;19.32;79.37
69009;SHT31;56065;52.472;13.380;2022-09-13T18:24:01;19.34;79.18
69009;SHT31;56065;52.472;13.380;2022-09-13T18:26:28;19.34;78.85
69009;SHT31;56065;52.472;13.380;2022-09-13T18:29:08;19.26;79.64
69009;SHT31;56065;52.472;13.380;2022-09-13T18:31:34;19.25;79.12
69009;SHT31;56065;52.472;13.380;2022-09-13T18:34:06;19.22;79.56
69009;SHT31;56065;52.472;13.380;2022-09-13T18:36:33;19.17;79.43
69009;SHT31;56065;52.472;13.380;2022-09-13T18:38:59;19.15;79.47
69009;SHT31;56065;52.472;13.380;2022-09-13T18:41:33;19.12;79.33
69009;SHT31;56065;52.472;13.380;2022-09-13T18:43:59;19.08;79.26
69009;SHT31;56065;52.472;13.380;2022-09-13T18:46:27;18.97;80.13
69009;SHT31;56065;52.472;13.380;2022-09-13T18:48:54;18.97;79.82
69009;SHT31;56065;52.472;13.380;2022-09-13T18:51:32;18.88;80.70
69009;SHT31;56065;52.472;13.380;2022-09-13T18:53:59;18.95;80.13
69009;SHT31;56065;52.472;13.380;2022-09-13T18:56:26;18.91;80.56
69009;SHT31;56065;52.472;13.380;2022-09-13T18:58:52;18.93;80.07